Hff Inc-Class A (HF) Latest Bloomsberg Price


Mffais Ranking #405 Overall / #6 Industry
Industry: Mortgage Finance

Number of Companies: 124 (Ranking #1435 Overall/#15 Industry)
Inflow: $ 84,173 (K) (Ranking #1163 Overall/#9 Industry)
Outflow: $ -54,249 (K)
Mffais Flow: $ 29,923 (K) (Ranking #405 Overall/#6 Industry)


Receive a FREE weekly executive review of stocks moving into the top 10, taking the top industy spot or moving up within their industry. Sent directly to your Inbox every Saturday. Sign up today and get last week's review immediately sent to you.

We value and respect your privacy. Please read our Terms and Conditions which states our firm commitment to your privacy. Your email address will not be shared with a third party, nor will it be sold or used for purposes other than subscription for the weekly review.

Owner CPOR Shares Action Qty Chg Invested (K) Total Current Value (K)
Timessquare Capital Management Llc 2016-03-31 1,821,400 New Holding 1,821,400 $ 50,143 $ 50,143
Kayne Anderson Rudnick Investment Management Llc 2016-06-30 3,463,565 Added More 643,725 $ 18,590 $ 100,027
New Amsterdam Partners Llc Ny 2016-06-30 307,223 Added More 89,499 $ 2,584 $ 8,872
Secor Capital Advisors Lp 2016-06-30 67,737 Added More 54,523 $ 1,574 $ 1,956
Rothschild Asset Management Inc 2016-06-30 208,362 Added More 46,120 $ 1,331 $ 6,017
Raymond James Associates 2016-03-31 124,181 Added More 45,421 $ 1,250 $ 3,418
Apex Capital Management 2016-03-31 261,088 Added More 42,300 $ 1,164 $ 7,187
Tfs Capital Llc 2016-03-31 28,584 New Holding 28,584 $ 786 $ 786
Two Sigma Advisers Llc 2016-03-31 69,130 Added More 23,719 $ 652 $ 1,903
Smith Asset Management Group Lp 2016-06-30 53,170 Added More 20,950 $ 605 $ 1,535
Clinton Group Inc 2016-03-31 19,195 New Holding 19,195 $ 528 $ 528
Tudor Investment Corp Et Al 2016-03-31 18,728 New Holding 18,728 $ 515 $ 515
Bbva Compass Bancshares Inc 2016-06-30 27,410 Added More 17,319 $ 500 $ 791
Capital Impact Advisors Llc 2016-03-31 33,126 Added More 17,400 $ 479 $ 911
Deimos Asset Management Llc 2016-03-31 16,145 New Holding 16,145 $ 444 $ 444
Amp Capital Investors Ltd 2016-03-31 14,300 New Holding 14,300 $ 393 $ 393
Parametric Portfolio Associates Llc 2016-03-31 47,455 Added More 10,775 $ 296 $ 1,306
Gsa Capital Partners Llp 2016-06-30 8,874 New Holding 8,874 $ 256 $ 256
Forward Management Llc 2016-06-30 8,700 New Holding 8,700 $ 251 $ 251
Wesbanco Bank Inc 2016-06-30 7,780 New Holding 7,780 $ 224 $ 224
Bnp Paribas Arbitrage Sa 2016-06-30 11,955 Added More 5,930 $ 171 $ 345
Bb T Securities Llc 2016-06-30 13,990 Added More 5,770 $ 166 $ 404
Ramsey Quantitative Systems 2016-03-31 25,889 Added More 4,719 $ 129 $ 712
Swiss National Bank 2016-06-30 60,100 Added More 4,000 $ 115 $ 1,735
Blackrock Investment Management Llc 2016-06-30 150,666 Added More 3,792 $ 109 $ 4,351
Prudential Financial Inc 2016-06-30 118,615 Added More 3,560 $ 102 $ 3,425
Old National Bancorp In 2016-06-30 14,140 Added More 2,377 $ 68 $ 408
Schwab Charles Investment Management Inc 2016-03-31 126,018 Added More 2,477 $ 68 $ 3,469
Legal General Group Plc 2016-03-31 10,006 Added More 2,378 $ 65 $ 275
Cutler Group Lp 2016-06-30 2,774 Added More 2,050 $ 59 $ 80
Lebenthal Holdings Llc 2016-03-31 46,123 Added More 1,815 $ 49 $ 1,269
D A Davidson Co 2016-03-31 5,741 Added More 1,582 $ 43 $ 158
Blair William Co Il 2016-06-30 80,707 Added More 1,487 $ 42 $ 2,330
Princeton Alpha Management Lp 2016-06-30 11,334 Added More 1,464 $ 42 $ 327
Capstone Asset Management Co 2016-06-30 13,650 Added More 1,410 $ 40 $ 394
Sei Investments Co 2016-03-31 16,026 Added More 1,402 $ 38 $ 441
American International Group Inc 2016-03-31 27,986 Added More 1,202 $ 33 $ 770
Arcadia Investment Management Corp Mi 2016-06-30 1,061 New Holding 1,061 $ 30 $ 30
Envestnet Asset Management Inc 2016-03-31 10,093 Added More 956 $ 26 $ 277
Teacher Retirement System Of Texas 2016-06-30 5,061 Added More 879 $ 25 $ 146
Comerica Bank 2016-03-31 36,299 Added More 728 $ 20 $ 999
Arizona State Retirement System 2016-03-31 17,752 Added More 700 $ 19 $ 488
State Of Tennessee Treasury Department 2016-03-31 27,549 Added More 649 $ 17 $ 758
Rhumbline Advisers 2016-03-31 46,496 Added More 600 $ 16 $ 1,280
Mason Street Advisors Llc 2016-03-31 6,144 Added More 595 $ 16 $ 169
Simplex Trading Llc 2016-06-30 503 New Holding 503 $ 14 $ 14
Piermont Capital Management Inc 2016-03-31 12,215 Added More 465 $ 12 $ 336
Fdx Advisors Inc 2016-03-31 19,387 Added More 382 $ 10 $ 533
Howe Rusling Inc 2016-03-31 2,445 Added More 345 $ 9 $ 67
Qs Investors Llc 2016-03-31 144,767 Added More 335 $ 9 $ 3,985
Blackrock Inc 2016-06-30 2,950 Added More 243 $ 7 $ 85
Pinebridge Investments L P 2016-06-30 4,395 Added More 172 $ 4 $ 126
Enterprise Financial Services Corp 2016-06-30 156 New Holding 156 $ 4 $ 4
Ls Investment Advisors Llc 2016-06-30 1,234 Added More 109 $ 3 $ 35
Northwestern Mutual Wealth Management Co 2016-03-31 42 New Holding 42 $ 1 $ 1
Los Angeles Capital Management Equity Research Inc 2016-06-30 10,155 No Change 0 $ 0 $ 293
Asset Dedication Llc 2016-06-30 500 No Change 0 $ 0 $ 14
Piedmont Investment Advisors Llc 2016-03-31 35 No Change 0 $ 0 $ 0
Creative Planning 2016-06-30 97 No Change 0 $ 0 $ 2
Ftb Advisors Inc 2016-06-30 190 No Change 0 $ 0 $ 5
Paradigm Asset Management Co Llc 2016-03-31 3,300 No Change 0 $ 0 $ 90
Emerald Advisers Inc Pa 2016-06-30 125,670 No Change 0 $ 0 $ 3,629
Jacobs Levy Equity Management Inc 2016-03-31 35,117 No Change 0 $ 0 $ 966
State Of New Jersey Common Pension Fund D 2016-06-30 107,000 No Change 0 $ 0 $ 3,090
Metlife Securities Inc 2016-06-30 61 No Change 0 $ 0 $ 1
Panagora Asset Management Inc 2016-03-31 1,132 No Change 0 $ 0 $ 31
Nisa Investment Advisors L L C 2016-06-30 500 No Change 0 $ 0 $ 14
Zurcher Kantonalbank Zurich Cantonalbank 2016-06-30 829 No Change 0 $ 0 $ 23
Delta Asset Management Llc Tn 2016-06-30 79 No Change 0 $ 0 $ 2
Blackrock Japan Co Ltd 2016-06-30 4 No Change 0 $ 0 $ 0
Metropolitan Life Insurance Co Ny 2016-03-31 26,485 No Change 0 $ 0 $ 729
Atlanta Capital Group 2016-06-30 17,560 No Change 0 $ 0 $ 507
Albert D Mason Inc 2016-06-30 14,860 No Change 0 $ 0 $ 429
Public Sector Pension Investment Board 2016-03-31 23,714 No Change 0 $ 0 $ 652
Pnc Financial Services Group Inc 2016-06-30 1,766 Sold Some -108 $ -3 $ 51
Paloma Partners Management Co 2016-03-31 14,981 Sold Some -136 $ -3 $ 412
Fifth Third Bancorp 2016-03-31 0 Sold All -173 $ -4 $ 0
Us Bancorp De 2016-06-30 731 Sold Some -170 $ -4 $ 21
Next Financial Group Inc 2016-06-30 0 Sold All -176 $ -5 $ 0
Johnson Financial Group Inc 2016-03-31 375 Sold Some -200 $ -5 $ 10
Aperio Group Llc 2016-03-31 8,182 Sold Some -406 $ -11 $ 225
Nationwide Fund Advisors 2016-06-30 43,645 Sold Some -475 $ -13 $ 1,260
Massmutual Trust Co Fsb Adv 2016-06-30 0 Sold All -521 $ -15 $ 0
Thrivent Financial For Lutherans 2016-03-31 92,400 Sold Some -850 $ -23 $ 2,543
Advisors Asset Management Inc 2016-06-30 13,745 Sold Some -977 $ -28 $ 396
Acrospire Investment Management Llc 2016-06-30 1,124 Sold Some -1,000 $ -28 $ 32
Alps Advisors Inc 2016-06-30 14,588 Sold Some -1,072 $ -30 $ 421
Texas Permanent School Fund 2016-06-30 26,497 Sold Some -1,121 $ -32 $ 765
Riverhead Capital Management Llc 2016-03-31 5,700 Sold Some -1,900 $ -52 $ 156
Texan Capital Management 2016-06-30 79,454 Sold Some -1,820 $ -52 $ 2,294
Regions Financial Corp 2016-06-30 43,091 Sold Some -2,376 $ -68 $ 1,244
Cantab Capital Partners Llp 2016-03-31 268 Sold Some -2,516 $ -69 $ 7
Commonwealth Equity Services Inc 2016-06-30 15,661 Sold Some -2,700 $ -77 $ 452
California Public Employees Retirement System 2016-06-30 93,400 Sold Some -2,700 $ -77 $ 2,697
Btim Corp 2016-06-30 311,581 Sold Some -2,722 $ -78 $ 8,998
New York State Teachers Retirement System 2016-06-30 39,432 Sold Some -3,300 $ -95 $ 1,138
Loomis Sayles Co L P 2016-03-31 633,438 Sold Some -4,527 $ -124 $ 17,438
Next Century Growth Investors Llc 2016-03-31 825,478 Sold Some -4,964 $ -136 $ 22,725
California State Teachers Retirement System 2016-06-30 75,263 Sold Some -5,147 $ -148 $ 2,173
Mackenzie Financial Corp 2016-03-31 35,613 Sold Some -6,309 $ -173 $ 980
Sta Wealth Management Llc 2016-03-31 0 Sold All -6,611 $ -182 $ 0
Bokf Na 2016-03-31 0 Sold All -6,972 $ -191 $ 0
Hbk Investments L P 2016-03-31 0 Sold All -7,900 $ -217 $ 0
Cubist Systematic Strategies Llc 2016-03-31 0 Sold All -8,568 $ -235 $ 0
Trexquant Investment Lp 2016-06-30 0 Sold All -8,676 $ -250 $ 0
Stevens Capital Management Lp 2016-03-31 0 Sold All -10,466 $ -288 $ 0
Old Mutual Global Investors Uk Ltd 2016-06-30 416 Sold Some -10,885 $ -314 $ 12
Guggenheim Capital Llc 2016-03-31 76,275 Sold Some -11,798 $ -324 $ 2,099
Gotham Asset Management Llc 2016-03-31 0 Sold All -15,044 $ -414 $ 0
Bluecrest Capital Management Ltd 2016-03-31 0 Sold All -16,112 $ -443 $ 0
Northern Trust Corp 2016-03-31 466,640 Sold Some -18,693 $ -514 $ 12,846
Macquarie Group Ltd 2016-03-31 17,006 Sold Some -41,982 $ -1,155 $ 468
Stanley-Laman Group Ltd 2016-06-30 0 Sold All -40,238 $ -1,162 $ 0
Deere Co 2016-03-31 0 Sold All -49,028 $ -1,349 $ 0
Wasatch Advisors Inc 2016-03-31 1,894,071 Sold Some -57,803 $ -1,591 $ 52,143
Limestone Value Partners Llc 2016-06-30 0 Sold All -84,493 $ -2,440 $ 0
Nicholas Investment Partners Lp 2016-03-31 0 Sold All -98,398 $ -2,708 $ 0
New York State Common Retirement Fund 2016-06-30 38,100 Sold Some -111,852 $ -3,230 $ 1,100
Eagle Asset Management Inc 2016-06-30 529,098 Sold Some -118,875 $ -3,433 $ 15,280
Russell Frank Co 2016-03-31 66,217 Sold Some -129,352 $ -3,561 $ 1,822
Nuveen Asset Management Llc 2016-03-31 0 Sold All -180,032 $ -4,956 $ 0
Teachers Advisors Inc 2016-03-31 56,167 Sold Some -182,309 $ -5,018 $ 1,546
Picton Mahoney Asset Management 2016-03-31 48,400 Sold Some -245,200 $ -6,750 $ 1,332
Allianz Asset Management Ag 2016-03-31 0 Sold All -441,238 $ -12,147 $ 0